Terminal Aerodrome Forecast
Issued by NWS

Home | Current Version | Previous Version | Text Only | Print | Product List | Glossary Off
Versions: 1 2 3 4 5 6 7 8 9 10 11 12 13 14

000
FTUS43 KICT 181130
TAFRSL
TAF
KRSL 181130Z 1812/1912 11006KT P6SM SCT250
     FM181300 01006KT P6SM SCT250
     FM181700 09007KT P6SM SCT250
     FM190100 17009KT P6SM SCT200=

USA.gov is the U.S. government's official web portal to all federal, state and local government web resources and services.